Dauphin Airport, Manitoba

Past 24 Hour Conditions

Date / Time
(CDT)
Conditions Temp
(°F)
Humidity
(%)
Dew Point
(°F)
Wind
(mph)
Pressure
(inches)
Vis
(mi)
Wind Chill
01 November 2014
8:00 Clear 29 73 21 SE 6 29.9 10 23
7:00 Clear 30 69 21 E 5 29.9 10 25
6:00 Clear 30 68 21 SSE 7 30.0 10 23
5:00 Clear 31 64 21 SSE 10 30.0 10 23
4:00 Clear 33 58 20 SE 7 30.0 10 *
3:00 Clear 33 53 18 SE 7 30.0 10 *
2:00 Clear 38 40 15 SSW 13 30.0 10 *
1:00 Mostly Cloudy 38 42 17 S 6 30.0 10 *
00:00 Cloudy 39 36 14 SSW 13 30.1 10 *
31 October 2014
23:00 Cloudy 39 41 17 S 11 gust 20 30.1 10 *
22:00 Cloudy 37 46 18 SE 3 30.1 10 *
21:00 Cloudy 37 40 15 S 8 gust 18 30.1 10 *
20:00 Mostly Cloudy 34 56 20 E 3 30.2 10 *
19:00 Cloudy 36 54 21 SSE 7 30.2 10 *
18:00 Cloudy 38 45 18 SE 6 30.2 10 *
17:00 Mainly Sunny 39 43 18 SSE 9 30.2 10 *
16:00 Mainly Sunny 39 45 19 S 10 30.3 10 *
15:00 Sunny 38 47 19 S 9 gust 21 30.3 10 *
14:00 Sunny 40   40 17 SSW 10 30.4 10 *
13:00 Sunny 37 49 19 SW 13 30.4 10 *
12:00 Sunny 33 66 22 ESE 9 30.4 10 *
11:00 Sunny 30 69 21 SW 9 30.5 10 22
10:00 Sunny 24 86 20 calm 30.5 10 *
9:00 Sunny 18   89 15 calm 30.5 10 *
8:00 Clear 19 88 16 WSW 3 30.5 10 15
N/A Not available
↑ Highest temperature
↓ Lowest temperature
* Value not significant.

If you require additional historical weather information, please visit Climate Data Online.

Date modified: